sensor_id;sensor_type;location;lat;lon;timestamp;P1;durP1;ratioP1;P2;durP2;ratioP2
26656;SDS011;14279;50.010;8.260;2023-07-16T00:02:20;5.37;;;2.57;;
26656;SDS011;14279;50.010;8.260;2023-07-16T00:04:46;6.83;;;2.87;;
26656;SDS011;14279;50.010;8.260;2023-07-16T00:07:11;5.23;;;2.73;;
26656;SDS011;14279;50.010;8.260;2023-07-16T00:09:36;5.70;;;2.63;;
26656;SDS011;14279;50.010;8.260;2023-07-16T00:12:02;8.67;;;2.80;;
26656;SDS011;14279;50.010;8.260;2023-07-16T00:14:28;6.70;;;3.10;;
26656;SDS011;14279;50.010;8.260;2023-07-16T00:16:53;6.93;;;2.60;;
26656;SDS011;14279;50.010;8.260;2023-07-16T00:19:19;5.30;;;2.70;;
26656;SDS011;14279;50.010;8.260;2023-07-16T00:21:44;5.50;;;2.30;;
26656;SDS011;14279;50.010;8.260;2023-07-16T00:24:09;6.87;;;2.97;;
26656;SDS011;14279;50.010;8.260;2023-07-16T00:26:35;8.40;;;2.03;;
26656;SDS011;14279;50.010;8.260;2023-07-16T00:29:00;3.00;;;2.27;;
26656;SDS011;14279;50.010;8.260;2023-07-16T00:31:25;3.93;;;2.43;;
26656;SDS011;14279;50.010;8.260;2023-07-16T00:33:51;5.87;;;2.40;;
26656;SDS011;14279;50.010;8.260;2023-07-16T00:36:16;3.60;;;2.00;;
26656;SDS011;14279;50.010;8.260;2023-07-16T00:38:41;6.13;;;2.10;;
26656;SDS011;14279;50.010;8.260;2023-07-16T00:41:07;2.87;;;1.73;;
26656;SDS011;14279;50.010;8.260;2023-07-16T00:43:33;5.93;;;2.00;;
26656;SDS011;14279;50.010;8.260;2023-07-16T00:45:59;8.93;;;2.67;;
26656;SDS011;14279;50.010;8.260;2023-07-16T00:48:24;2.93;;;1.53;;
26656;SDS011;14279;50.010;8.260;2023-07-16T00:50:50;5.03;;;2.47;;
26656;SDS011;14279;50.010;8.260;2023-07-16T00:53:17;10.37;;;2.33;;
26656;SDS011;14279;50.010;8.260;2023-07-16T00:55:44;4.20;;;1.90;;
26656;SDS011;14279;50.010;8.260;2023-07-16T00:58:10;4.50;;;2.03;;
26656;SDS011;14279;50.010;8.260;2023-07-16T01:00:36;5.33;;;2.00;;
26656;SDS011;14279;50.010;8.260;2023-07-16T01:03:04;4.93;;;2.00;;
26656;SDS011;14279;50.010;8.260;2023-07-16T01:05:34;4.67;;;1.80;;
26656;SDS011;14279;50.010;8.260;2023-07-16T01:08:08;2.60;;;1.70;;
26656;SDS011;14279;50.010;8.260;2023-07-16T01:10:35;10.73;;;1.80;;
26656;SDS011;14279;50.010;8.260;2023-07-16T01:13:02;5.10;;;2.17;;
26656;SDS011;14279;50.010;8.260;2023-07-16T01:15:28;4.13;;;1.90;;
26656;SDS011;14279;50.010;8.260;2023-07-16T01:17:53;4.00;;;2.23;;
26656;SDS011;14279;50.010;8.260;2023-07-16T01:20:19;7.40;;;1.57;;
26656;SDS011;14279;50.010;8.260;2023-07-16T01:25:23;3.50;;;1.83;;
26656;SDS011;14279;50.010;8.260;2023-07-16T01:30:50;5.70;;;2.00;;
26656;SDS011;14279;50.010;8.260;2023-07-16T01:33:17;8.20;;;1.93;;
26656;SDS011;14279;50.010;8.260;2023-07-16T01:35:45;5.97;;;2.10;;
26656;SDS011;14279;50.010;8.260;2023-07-16T01:38:12;5.50;;;1.40;;
26656;SDS011;14279;50.010;8.260;2023-07-16T01:40:38;5.10;;;1.87;;
26656;SDS011;14279;50.010;8.260;2023-07-16T01:43:03;6.17;;;1.90;;
26656;SDS011;14279;50.010;8.260;2023-07-16T01:45:29;6.70;;;2.47;;
26656;SDS011;14279;50.010;8.260;2023-07-16T01:47:59;3.80;;;1.90;;
26656;SDS011;14279;50.010;8.260;2023-07-16T01:50:25;6.33;;;2.00;;
26656;SDS011;14279;50.010;8.260;2023-07-16T01:52:50;6.10;;;2.27;;
26656;SDS011;14279;50.010;8.260;2023-07-16T01:55:16;6.60;;;1.93;;
26656;SDS011;14279;50.010;8.260;2023-07-16T01:57:41;10.47;;;2.47;;
26656;SDS011;14279;50.010;8.260;2023-07-16T02:00:07;5.13;;;1.93;;
26656;SDS011;14279;50.010;8.260;2023-07-16T02:02:33;7.83;;;1.70;;
26656;SDS011;14279;50.010;8.260;2023-07-16T02:04:59;7.07;;;2.60;;
26656;SDS011;14279;50.010;8.260;2023-07-16T02:07:24;4.63;;;2.00;;
26656;SDS011;14279;50.010;8.260;2023-07-16T02:09:50;3.80;;;2.20;;
26656;SDS011;14279;50.010;8.260;2023-07-16T02:12:15;5.40;;;1.90;;
26656;SDS011;14279;50.010;8.260;2023-07-16T02:14:44;2.43;;;1.87;;
26656;SDS011;14279;50.010;8.260;2023-07-16T02:17:09;7.60;;;1.80;;
26656;SDS011;14279;50.010;8.260;2023-07-16T02:19:35;3.43;;;1.90;;
26656;SDS011;14279;50.010;8.260;2023-07-16T02:22:00;7.10;;;2.40;;
26656;SDS011;14279;50.010;8.260;2023-07-16T02:24:26;5.97;;;2.50;;
26656;SDS011;14279;50.010;8.260;2023-07-16T02:26:51;6.40;;;2.03;;
26656;SDS011;14279;50.010;8.260;2023-07-16T02:29:19;3.13;;;2.07;;
26656;SDS011;14279;50.010;8.260;2023-07-16T02:31:47;3.50;;;2.27;;
26656;SDS011;14279;50.010;8.260;2023-07-16T02:34:13;5.30;;;2.13;;
26656;SDS011;14279;50.010;8.260;2023-07-16T02:36:46;7.50;;;2.63;;
26656;SDS011;14279;50.010;8.260;2023-07-16T02:39:12;4.47;;;2.43;;
26656;SDS011;14279;50.010;8.260;2023-07-16T02:41:37;13.80;;;3.27;;
26656;SDS011;14279;50.010;8.260;2023-07-16T02:44:04;5.90;;;2.20;;
26656;SDS011;14279;50.010;8.260;2023-07-16T02:46:30;8.27;;;2.73;;
26656;SDS011;14279;50.010;8.260;2023-07-16T02:48:56;10.90;;;2.73;;
26656;SDS011;14279;50.010;8.260;2023-07-16T02:51:24;4.60;;;2.60;;
26656;SDS011;14279;50.010;8.260;2023-07-16T02:53:50;8.60;;;2.60;;
26656;SDS011;14279;50.010;8.260;2023-07-16T02:56:15;10.87;;;3.10;;
26656;SDS011;14279;50.010;8.260;2023-07-16T02:58:41;11.53;;;2.33;;
26656;SDS011;14279;50.010;8.260;2023-07-16T03:01:07;10.23;;;1.90;;
26656;SDS011;14279;50.010;8.260;2023-07-16T03:03:32;4.93;;;2.57;;
26656;SDS011;14279;50.010;8.260;2023-07-16T03:05:57;11.70;;;2.37;;
26656;SDS011;14279;50.010;8.260;2023-07-16T03:08:23;7.97;;;2.50;;
26656;SDS011;14279;50.010;8.260;2023-07-16T03:10:51;10.47;;;2.60;;
26656;SDS011;14279;50.010;8.260;2023-07-16T03:13:16;11.20;;;2.57;;
26656;SDS011;14279;50.010;8.260;2023-07-16T03:15:42;15.40;;;2.87;;
26656;SDS011;14279;50.010;8.260;2023-07-16T03:18:07;6.53;;;2.30;;
26656;SDS011;14279;50.010;8.260;2023-07-16T03:20:32;9.43;;;2.50;;
26656;SDS011;14279;50.010;8.260;2023-07-16T03:22:58;6.23;;;2.40;;
26656;SDS011;14279;50.010;8.260;2023-07-16T03:25:23;10.30;;;2.33;;
26656;SDS011;14279;50.010;8.260;2023-07-16T03:27:48;11.63;;;2.80;;
26656;SDS011;14279;50.010;8.260;2023-07-16T03:30:14;12.87;;;2.50;;
26656;SDS011;14279;50.010;8.260;2023-07-16T03:32:39;7.13;;;2.50;;
26656;SDS011;14279;50.010;8.260;2023-07-16T03:35:04;16.13;;;2.77;;
26656;SDS011;14279;50.010;8.260;2023-07-16T03:37:30;10.90;;;2.60;;
26656;SDS011;14279;50.010;8.260;2023-07-16T03:39:55;15.87;;;2.67;;
26656;SDS011;14279;50.010;8.260;2023-07-16T03:42:20;7.83;;;2.77;;
26656;SDS011;14279;50.010;8.260;2023-07-16T03:44:47;10.50;;;2.57;;
26656;SDS011;14279;50.010;8.260;2023-07-16T03:47:12;8.30;;;2.90;;
26656;SDS011;14279;50.010;8.260;2023-07-16T03:49:37;12.50;;;3.53;;
26656;SDS011;14279;50.010;8.260;2023-07-16T03:52:03;8.70;;;3.00;;
26656;SDS011;14279;50.010;8.260;2023-07-16T03:54:28;10.83;;;2.30;;
26656;SDS011;14279;50.010;8.260;2023-07-16T03:56:54;7.93;;;2.63;;
26656;SDS011;14279;50.010;8.260;2023-07-16T03:59:19;19.90;;;3.20;;
26656;SDS011;14279;50.010;8.260;2023-07-16T04:01:44;3.83;;;2.40;;
26656;SDS011;14279;50.010;8.260;2023-07-16T04:04:10;14.10;;;3.53;;
26656;SDS011;14279;50.010;8.260;2023-07-16T04:06:35;8.93;;;3.17;;
26656;SDS011;14279;50.010;8.260;2023-07-16T04:09:00;7.50;;;2.87;;
26656;SDS011;14279;50.010;8.260;2023-07-16T04:11:25;9.10;;;3.20;;
26656;SDS011;14279;50.010;8.260;2023-07-16T04:13:51;14.33;;;3.20;;
26656;SDS011;14279;50.010;8.260;2023-07-16T04:16:16;12.63;;;2.90;;
26656;SDS011;14279;50.010;8.260;2023-07-16T04:18:41;9.90;;;3.80;;
26656;SDS011;14279;50.010;8.260;2023-07-16T04:21:07;16.53;;;3.33;;
26656;SDS011;14279;50.010;8.260;2023-07-16T04:23:32;7.80;;;3.10;;
26656;SDS011;14279;50.010;8.260;2023-07-16T04:25:58;10.00;;;3.20;;
26656;SDS011;14279;50.010;8.260;2023-07-16T04:28:23;17.20;;;3.40;;
26656;SDS011;14279;50.010;8.260;2023-07-16T04:30:48;13.30;;;3.77;;
26656;SDS011;14279;50.010;8.260;2023-07-16T04:33:13;12.90;;;3.37;;
26656;SDS011;14279;50.010;8.260;2023-07-16T04:35:39;6.07;;;3.10;;
26656;SDS011;14279;50.010;8.260;2023-07-16T04:38:04;15.30;;;3.83;;
26656;SDS011;14279;50.010;8.260;2023-07-16T04:40:30;4.50;;;2.57;;
26656;SDS011;14279;50.010;8.260;2023-07-16T04:42:55;9.03;;;3.67;;
26656;SDS011;14279;50.010;8.260;2023-07-16T04:45:21;11.43;;;3.20;;
26656;SDS011;14279;50.010;8.260;2023-07-16T04:47:46;13.47;;;2.87;;
26656;SDS011;14279;50.010;8.260;2023-07-16T04:50:12;3.87;;;2.70;;
26656;SDS011;14279;50.010;8.260;2023-07-16T04:52:37;9.83;;;3.20;;
26656;SDS011;14279;50.010;8.260;2023-07-16T04:55:03;15.93;;;2.70;;
26656;SDS011;14279;50.010;8.260;2023-07-16T04:57:28;13.80;;;2.50;;
26656;SDS011;14279;50.010;8.260;2023-07-16T04:59:54;16.57;;;3.43;;
26656;SDS011;14279;50.010;8.260;2023-07-16T05:02:19;17.33;;;2.90;;
26656;SDS011;14279;50.010;8.260;2023-07-16T05:04:44;10.50;;;3.20;;
26656;SDS011;14279;50.010;8.260;2023-07-16T05:07:12;12.63;;;3.23;;
26656;SDS011;14279;50.010;8.260;2023-07-16T05:09:38;11.30;;;2.47;;
26656;SDS011;14279;50.010;8.260;2023-07-16T05:12:03;12.57;;;3.33;;
26656;SDS011;14279;50.010;8.260;2023-07-16T05:14:29;12.30;;;3.33;;
26656;SDS011;14279;50.010;8.260;2023-07-16T05:16:54;10.80;;;2.90;;
26656;SDS011;14279;50.010;8.260;2023-07-16T05:19:20;17.33;;;3.10;;
26656;SDS011;14279;50.010;8.260;2023-07-16T05:21:45;14.10;;;3.80;;
26656;SDS011;14279;50.010;8.260;2023-07-16T05:24:11;11.00;;;2.77;;
26656;SDS011;14279;50.010;8.260;2023-07-16T05:26:36;11.10;;;2.90;;
26656;SDS011;14279;50.010;8.260;2023-07-16T05:29:01;13.90;;;3.03;;
26656;SDS011;14279;50.010;8.260;2023-07-16T05:31:27;7.27;;;2.53;;
26656;SDS011;14279;50.010;8.260;2023-07-16T05:33:52;13.47;;;3.40;;
26656;SDS011;14279;50.010;8.260;2023-07-16T05:36:17;6.47;;;2.80;;
26656;SDS011;14279;50.010;8.260;2023-07-16T05:38:42;8.03;;;2.80;;
26656;SDS011;14279;50.010;8.260;2023-07-16T05:41:08;9.73;;;2.90;;
26656;SDS011;14279;50.010;8.260;2023-07-16T05:43:33;15.10;;;2.97;;
26656;SDS011;14279;50.010;8.260;2023-07-16T05:45:58;12.60;;;3.20;;
26656;SDS011;14279;50.010;8.260;2023-07-16T05:48:24;10.57;;;2.83;;
26656;SDS011;14279;50.010;8.260;2023-07-16T05:50:49;7.73;;;3.33;;
26656;SDS011;14279;50.010;8.260;2023-07-16T05:53:14;8.10;;;2.63;;
26656;SDS011;14279;50.010;8.260;2023-07-16T05:55:40;12.20;;;3.17;;
26656;SDS011;14279;50.010;8.260;2023-07-16T05:58:05;10.50;;;3.10;;
26656;SDS011;14279;50.010;8.260;2023-07-16T06:00:30;11.60;;;2.90;;
26656;SDS011;14279;50.010;8.260;2023-07-16T06:02:55;11.10;;;3.60;;
26656;SDS011;14279;50.010;8.260;2023-07-16T06:05:21;11.57;;;3.37;;
26656;SDS011;14279;50.010;8.260;2023-07-16T06:07:46;6.93;;;2.90;;
26656;SDS011;14279;50.010;8.260;2023-07-16T06:10:12;10.20;;;2.97;;
26656;SDS011;14279;50.010;8.260;2023-07-16T06:12:37;6.27;;;3.17;;
26656;SDS011;14279;50.010;8.260;2023-07-16T06:15:02;13.23;;;3.20;;
26656;SDS011;14279;50.010;8.260;2023-07-16T06:17:28;11.60;;;3.53;;
26656;SDS011;14279;50.010;8.260;2023-07-16T06:19:53;9.33;;;3.27;;
26656;SDS011;14279;50.010;8.260;2023-07-16T06:22:18;7.07;;;3.50;;
26656;SDS011;14279;50.010;8.260;2023-07-16T06:24:44;27.60;;;3.90;;
26656;SDS011;14279;50.010;8.260;2023-07-16T06:27:09;9.57;;;3.30;;
26656;SDS011;14279;50.010;8.260;2023-07-16T06:29:34;13.13;;;3.20;;
26656;SDS011;14279;50.010;8.260;2023-07-16T06:31:59;9.37;;;3.10;;
26656;SDS011;14279;50.010;8.260;2023-07-16T06:34:25;10.63;;;3.17;;
26656;SDS011;14279;50.010;8.260;2023-07-16T06:36:50;11.20;;;3.13;;
26656;SDS011;14279;50.010;8.260;2023-07-16T06:39:16;13.00;;;3.30;;
26656;SDS011;14279;50.010;8.260;2023-07-16T06:41:41;9.10;;;3.30;;
26656;SDS011;14279;50.010;8.260;2023-07-16T06:44:07;10.43;;;3.47;;
26656;SDS011;14279;50.010;8.260;2023-07-16T06:46:32;13.70;;;3.30;;
26656;SDS011;14279;50.010;8.260;2023-07-16T06:48:57;12.23;;;3.30;;
26656;SDS011;14279;50.010;8.260;2023-07-16T06:51:22;14.43;;;3.73;;
26656;SDS011;14279;50.010;8.260;2023-07-16T06:53:48;15.53;;;4.80;;
26656;SDS011;14279;50.010;8.260;2023-07-16T06:56:13;10.80;;;3.60;;
26656;SDS011;14279;50.010;8.260;2023-07-16T06:58:39;12.93;;;3.30;;
26656;SDS011;14279;50.010;8.260;2023-07-16T07:01:04;9.67;;;3.80;;
26656;SDS011;14279;50.010;8.260;2023-07-16T07:03:29;13.13;;;3.60;;
26656;SDS011;14279;50.010;8.260;2023-07-16T07:05:54;10.60;;;3.63;;
26656;SDS011;14279;50.010;8.260;2023-07-16T07:08:20;15.30;;;3.40;;
26656;SDS011;14279;50.010;8.260;2023-07-16T07:10:46;11.33;;;3.30;;
26656;SDS011;14279;50.010;8.260;2023-07-16T07:13:13;9.93;;;3.10;;
26656;SDS011;14279;50.010;8.260;2023-07-16T07:15:39;8.70;;;3.30;;
26656;SDS011;14279;50.010;8.260;2023-07-16T07:18:04;10.07;;;4.20;;
26656;SDS011;14279;50.010;8.260;2023-07-16T07:20:29;9.53;;;3.00;;
26656;SDS011;14279;50.010;8.260;2023-07-16T07:22:54;12.17;;;3.67;;
26656;SDS011;14279;50.010;8.260;2023-07-16T07:25:20;11.43;;;3.70;;
26656;SDS011;14279;50.010;8.260;2023-07-16T07:27:45;14.03;;;3.63;;
26656;SDS011;14279;50.010;8.260;2023-07-16T07:30:10;11.03;;;2.87;;
26656;SDS011;14279;50.010;8.260;2023-07-16T07:32:36;8.13;;;3.20;;
26656;SDS011;14279;50.010;8.260;2023-07-16T07:35:02;13.37;;;3.40;;
26656;SDS011;14279;50.010;8.260;2023-07-16T07:37:28;14.60;;;4.00;;
26656;SDS011;14279;50.010;8.260;2023-07-16T07:39:53;9.63;;;2.87;;
26656;SDS011;14279;50.010;8.260;2023-07-16T07:42:18;8.83;;;3.53;;
26656;SDS011;14279;50.010;8.260;2023-07-16T07:44:44;9.03;;;3.00;;
26656;SDS011;14279;50.010;8.260;2023-07-16T07:47:09;10.50;;;3.70;;
26656;SDS011;14279;50.010;8.260;2023-07-16T07:49:34;11.00;;;2.83;;
26656;SDS011;14279;50.010;8.260;2023-07-16T07:52:00;7.77;;;3.43;;
26656;SDS011;14279;50.010;8.260;2023-07-16T07:54:25;8.60;;;3.40;;
26656;SDS011;14279;50.010;8.260;2023-07-16T07:56:50;10.17;;;3.17;;
26656;SDS011;14279;50.010;8.260;2023-07-16T07:59:16;9.83;;;3.43;;
26656;SDS011;14279;50.010;8.260;2023-07-16T08:01:41;10.67;;;2.80;;
26656;SDS011;14279;50.010;8.260;2023-07-16T08:04:06;14.73;;;3.23;;
26656;SDS011;14279;50.010;8.260;2023-07-16T08:06:32;7.60;;;3.00;;
26656;SDS011;14279;50.010;8.260;2023-07-16T08:08:57;5.37;;;2.90;;
26656;SDS011;14279;50.010;8.260;2023-07-16T08:11:22;10.57;;;3.00;;
26656;SDS011;14279;50.010;8.260;2023-07-16T08:13:47;15.40;;;3.00;;
26656;SDS011;14279;50.010;8.260;2023-07-16T08:16:14;10.00;;;2.83;;
26656;SDS011;14279;50.010;8.260;2023-07-16T08:18:39;8.83;;;3.17;;
26656;SDS011;14279;50.010;8.260;2023-07-16T08:21:04;11.20;;;3.27;;
26656;SDS011;14279;50.010;8.260;2023-07-16T08:23:29;10.80;;;2.97;;
26656;SDS011;14279;50.010;8.260;2023-07-16T08:25:55;6.93;;;3.10;;
26656;SDS011;14279;50.010;8.260;2023-07-16T08:28:20;8.70;;;3.00;;
26656;SDS011;14279;50.010;8.260;2023-07-16T08:30:48;13.87;;;3.63;;
26656;SDS011;14279;50.010;8.260;2023-07-16T08:33:14;5.70;;;2.63;;
26656;SDS011;14279;50.010;8.260;2023-07-16T08:35:40;13.07;;;2.60;;
26656;SDS011;14279;50.010;8.260;2023-07-16T08:38:06;9.37;;;3.37;;
26656;SDS011;14279;50.010;8.260;2023-07-16T08:40:34;9.03;;;2.83;;
26656;SDS011;14279;50.010;8.260;2023-07-16T08:43:01;7.87;;;3.00;;
26656;SDS011;14279;50.010;8.260;2023-07-16T08:45:28;6.10;;;2.73;;
26656;SDS011;14279;50.010;8.260;2023-07-16T08:47:54;10.30;;;2.80;;
26656;SDS011;14279;50.010;8.260;2023-07-16T08:50:20;9.93;;;2.70;;
26656;SDS011;14279;50.010;8.260;2023-07-16T08:52:47;11.83;;;2.77;;
26656;SDS011;14279;50.010;8.260;2023-07-16T08:55:13;8.70;;;3.20;;
26656;SDS011;14279;50.010;8.260;2023-07-16T08:57:39;8.93;;;3.43;;
26656;SDS011;14279;50.010;8.260;2023-07-16T09:02:57;8.47;;;3.37;;
26656;SDS011;14279;50.010;8.260;2023-07-16T09:05:22;8.83;;;2.80;;
26656;SDS011;14279;50.010;8.260;2023-07-16T09:07:48;11.37;;;2.90;;
26656;SDS011;14279;50.010;8.260;2023-07-16T09:10:15;12.67;;;3.37;;
26656;SDS011;14279;50.010;8.260;2023-07-16T09:12:44;9.00;;;3.13;;
26656;SDS011;14279;50.010;8.260;2023-07-16T09:15:16;13.53;;;3.53;;
26656;SDS011;14279;50.010;8.260;2023-07-16T09:18:12;9.23;;;3.20;;
26656;SDS011;14279;50.010;8.260;2023-07-16T09:20:57;4.67;;;3.23;;
26656;SDS011;14279;50.010;8.260;2023-07-16T09:26:18;6.80;;;2.80;;
26656;SDS011;14279;50.010;8.260;2023-07-16T09:28:47;8.50;;;3.23;;
26656;SDS011;14279;50.010;8.260;2023-07-16T09:31:12;11.23;;;3.30;;
26656;SDS011;14279;50.010;8.260;2023-07-16T09:33:38;16.23;;;3.60;;
26656;SDS011;14279;50.010;8.260;2023-07-16T09:36:03;6.50;;;2.70;;
26656;SDS011;14279;50.010;8.260;2023-07-16T09:38:28;8.80;;;3.27;;
26656;SDS011;14279;50.010;8.260;2023-07-16T09:40:55;11.30;;;3.10;;
26656;SDS011;14279;50.010;8.260;2023-07-16T09:43:21;6.97;;;3.30;;
26656;SDS011;14279;50.010;8.260;2023-07-16T09:45:47;7.80;;;3.20;;
26656;SDS011;14279;50.010;8.260;2023-07-16T09:48:21;8.83;;;3.03;;
26656;SDS011;14279;50.010;8.260;2023-07-16T09:50:53;13.03;;;3.90;;
26656;SDS011;14279;50.010;8.260;2023-07-16T09:53:19;11.30;;;3.00;;
26656;SDS011;14279;50.010;8.260;2023-07-16T09:55:46;11.80;;;3.40;;
26656;SDS011;14279;50.010;8.260;2023-07-16T09:58:12;9.70;;;3.10;;
26656;SDS011;14279;50.010;8.260;2023-07-16T10:00:38;6.43;;;3.20;;
26656;SDS011;14279;50.010;8.260;2023-07-16T10:03:08;11.70;;;3.50;;
26656;SDS011;14279;50.010;8.260;2023-07-16T10:05:39;8.80;;;3.27;;
26656;SDS011;14279;50.010;8.260;2023-07-16T10:08:20;10.83;;;3.10;;
26656;SDS011;14279;50.010;8.260;2023-07-16T10:10:52;7.10;;;2.80;;
26656;SDS011;14279;50.010;8.260;2023-07-16T10:13:29;30.37;;;3.20;;
26656;SDS011;14279;50.010;8.260;2023-07-16T10:15:57;5.50;;;2.60;;
26656;SDS011;14279;50.010;8.260;2023-07-16T10:20:49;7.83;;;2.90;;
26656;SDS011;14279;50.010;8.260;2023-07-16T10:23:15;9.13;;;2.83;;
26656;SDS011;14279;50.010;8.260;2023-07-16T10:25:59;5.37;;;2.57;;
26656;SDS011;14279;50.010;8.260;2023-07-16T10:28:26;7.70;;;2.87;;
26656;SDS011;14279;50.010;8.260;2023-07-16T10:30:52;7.53;;;3.30;;
26656;SDS011;14279;50.010;8.260;2023-07-16T10:33:17;6.50;;;2.70;;
26656;SDS011;14279;50.010;8.260;2023-07-16T10:35:44;8.30;;;2.83;;
26656;SDS011;14279;50.010;8.260;2023-07-16T10:38:10;12.90;;;3.23;;
26656;SDS011;14279;50.010;8.260;2023-07-16T10:40:45;7.33;;;3.20;;
26656;SDS011;14279;50.010;8.260;2023-07-16T10:43:11;6.63;;;3.30;;
26656;SDS011;14279;50.010;8.260;2023-07-16T10:45:37;3.47;;;2.70;;
26656;SDS011;14279;50.010;8.260;2023-07-16T10:48:03;9.03;;;3.07;;
26656;SDS011;14279;50.010;8.260;2023-07-16T10:50:32;9.93;;;3.50;;
26656;SDS011;14279;50.010;8.260;2023-07-16T10:52:59;5.03;;;2.83;;
26656;SDS011;14279;50.010;8.260;2023-07-16T10:55:29;9.37;;;2.87;;
26656;SDS011;14279;50.010;8.260;2023-07-16T10:57:56;5.90;;;2.90;;
26656;SDS011;14279;50.010;8.260;2023-07-16T11:00:22;7.87;;;3.17;;
26656;SDS011;14279;50.010;8.260;2023-07-16T11:02:51;10.03;;;3.40;;
26656;SDS011;14279;50.010;8.260;2023-07-16T11:05:17;8.70;;;2.80;;
26656;SDS011;14279;50.010;8.260;2023-07-16T11:07:44;7.50;;;3.27;;
26656;SDS011;14279;50.010;8.260;2023-07-16T11:10:11;4.90;;;2.87;;
26656;SDS011;14279;50.010;8.260;2023-07-16T11:12:37;7.87;;;3.23;;
26656;SDS011;14279;50.010;8.260;2023-07-16T11:15:02;7.23;;;3.10;;
26656;SDS011;14279;50.010;8.260;2023-07-16T11:17:28;4.50;;;3.13;;
26656;SDS011;14279;50.010;8.260;2023-07-16T11:19:54;12.20;;;3.40;;
26656;SDS011;14279;50.010;8.260;2023-07-16T11:22:24;8.97;;;3.60;;
26656;SDS011;14279;50.010;8.260;2023-07-16T11:24:51;10.20;;;2.87;;
26656;SDS011;14279;50.010;8.260;2023-07-16T11:27:18;5.70;;;2.90;;
26656;SDS011;14279;50.010;8.260;2023-07-16T11:29:46;5.80;;;3.10;;
26656;SDS011;14279;50.010;8.260;2023-07-16T11:32:30;8.93;;;4.23;;
26656;SDS011;14279;50.010;8.260;2023-07-16T11:34:57;11.40;;;3.90;;
26656;SDS011;14279;50.010;8.260;2023-07-16T11:37:25;9.77;;;3.33;;
26656;SDS011;14279;50.010;8.260;2023-07-16T11:39:54;8.40;;;3.20;;
26656;SDS011;14279;50.010;8.260;2023-07-16T11:42:27;12.30;;;3.27;;
26656;SDS011;14279;50.010;8.260;2023-07-16T11:44:53;6.73;;;2.83;;
26656;SDS011;14279;50.010;8.260;2023-07-16T11:47:20;17.00;;;4.70;;
26656;SDS011;14279;50.010;8.260;2023-07-16T11:49:45;8.13;;;3.70;;
26656;SDS011;14279;50.010;8.260;2023-07-16T11:52:11;20.57;;;3.83;;
26656;SDS011;14279;50.010;8.260;2023-07-16T11:54:36;7.67;;;3.83;;
26656;SDS011;14279;50.010;8.260;2023-07-16T11:57:01;5.70;;;3.30;;
26656;SDS011;14279;50.010;8.260;2023-07-16T11:59:27;5.60;;;3.33;;
26656;SDS011;14279;50.010;8.260;2023-07-16T12:01:52;7.20;;;3.17;;
26656;SDS011;14279;50.010;8.260;2023-07-16T12:04:18;7.37;;;3.43;;
26656;SDS011;14279;50.010;8.260;2023-07-16T12:06:44;11.20;;;3.47;;
26656;SDS011;14279;50.010;8.260;2023-07-16T12:09:09;14.03;;;4.07;;
26656;SDS011;14279;50.010;8.260;2023-07-16T12:11:35;4.73;;;3.23;;
26656;SDS011;14279;50.010;8.260;2023-07-16T12:14:01;8.10;;;2.73;;
26656;SDS011;14279;50.010;8.260;2023-07-16T12:16:26;12.07;;;3.87;;
26656;SDS011;14279;50.010;8.260;2023-07-16T12:18:52;6.97;;;3.70;;
26656;SDS011;14279;50.010;8.260;2023-07-16T12:21:17;7.03;;;3.67;;
26656;SDS011;14279;50.010;8.260;2023-07-16T12:23:42;5.43;;;3.57;;
26656;SDS011;14279;50.010;8.260;2023-07-16T12:26:07;12.57;;;4.10;;
26656;SDS011;14279;50.010;8.260;2023-07-16T12:28:33;7.23;;;3.80;;
26656;SDS011;14279;50.010;8.260;2023-07-16T12:30:59;9.73;;;4.00;;
26656;SDS011;14279;50.010;8.260;2023-07-16T12:33:24;7.07;;;3.80;;
26656;SDS011;14279;50.010;8.260;2023-07-16T12:35:49;13.67;;;3.90;;
26656;SDS011;14279;50.010;8.260;2023-07-16T12:38:15;6.93;;;3.40;;
26656;SDS011;14279;50.010;8.260;2023-07-16T12:40:40;9.30;;;3.90;;
26656;SDS011;14279;50.010;8.260;2023-07-16T12:43:06;6.53;;;4.27;;
26656;SDS011;14279;50.010;8.260;2023-07-16T12:45:31;4.67;;;2.93;;
26656;SDS011;14279;50.010;8.260;2023-07-16T12:47:57;8.40;;;3.50;;
26656;SDS011;14279;50.010;8.260;2023-07-16T12:50:22;9.10;;;4.40;;
26656;SDS011;14279;50.010;8.260;2023-07-16T12:52:48;7.90;;;4.23;;
26656;SDS011;14279;50.010;8.260;2023-07-16T12:55:13;10.43;;;4.23;;
26656;SDS011;14279;50.010;8.260;2023-07-16T12:57:39;6.77;;;3.50;;
26656;SDS011;14279;50.010;8.260;2023-07-16T13:00:04;6.83;;;4.00;;
26656;SDS011;14279;50.010;8.260;2023-07-16T13:02:30;8.27;;;3.50;;
26656;SDS011;14279;50.010;8.260;2023-07-16T13:04:55;11.87;;;4.00;;
26656;SDS011;14279;50.010;8.260;2023-07-16T13:07:20;5.77;;;3.80;;
26656;SDS011;14279;50.010;8.260;2023-07-16T13:09:46;11.00;;;3.77;;
26656;SDS011;14279;50.010;8.260;2023-07-16T13:12:11;8.27;;;3.93;;
26656;SDS011;14279;50.010;8.260;2023-07-16T13:14:36;8.83;;;4.53;;
26656;SDS011;14279;50.010;8.260;2023-07-16T13:17:01;9.23;;;4.13;;
26656;SDS011;14279;50.010;8.260;2023-07-16T13:19:29;10.43;;;4.43;;
26656;SDS011;14279;50.010;8.260;2023-07-16T13:21:54;9.70;;;4.20;;
26656;SDS011;14279;50.010;8.260;2023-07-16T13:24:19;12.27;;;4.00;;
26656;SDS011;14279;50.010;8.260;2023-07-16T13:26:44;9.30;;;3.87;;
26656;SDS011;14279;50.010;8.260;2023-07-16T13:29:10;6.00;;;3.67;;
26656;SDS011;14279;50.010;8.260;2023-07-16T13:31:35;9.43;;;4.00;;
26656;SDS011;14279;50.010;8.260;2023-07-16T13:34:00;9.00;;;4.70;;
26656;SDS011;14279;50.010;8.260;2023-07-16T13:36:25;8.70;;;4.73;;
26656;SDS011;14279;50.010;8.260;2023-07-16T13:38:51;7.60;;;3.40;;
26656;SDS011;14279;50.010;8.260;2023-07-16T13:41:16;6.70;;;3.93;;
26656;SDS011;14279;50.010;8.260;2023-07-16T13:43:41;8.13;;;3.67;;
26656;SDS011;14279;50.010;8.260;2023-07-16T13:46:07;8.30;;;3.90;;
26656;SDS011;14279;50.010;8.260;2023-07-16T13:48:32;6.20;;;3.87;;
26656;SDS011;14279;50.010;8.260;2023-07-16T13:50:57;5.50;;;3.63;;
26656;SDS011;14279;50.010;8.260;2023-07-16T13:53:22;14.97;;;5.10;;
26656;SDS011;14279;50.010;8.260;2023-07-16T13:55:48;7.10;;;3.43;;
26656;SDS011;14279;50.010;8.260;2023-07-16T13:58:13;6.03;;;3.90;;
26656;SDS011;14279;50.010;8.260;2023-07-16T14:00:39;6.80;;;3.73;;
26656;SDS011;14279;50.010;8.260;2023-07-16T14:03:05;13.90;;;4.87;;
26656;SDS011;14279;50.010;8.260;2023-07-16T14:05:31;11.53;;;4.10;;
26656;SDS011;14279;50.010;8.260;2023-07-16T14:07:59;12.67;;;3.90;;
26656;SDS011;14279;50.010;8.260;2023-07-16T14:10:25;8.47;;;4.43;;
26656;SDS011;14279;50.010;8.260;2023-07-16T14:12:50;14.23;;;4.80;;
26656;SDS011;14279;50.010;8.260;2023-07-16T14:15:15;12.60;;;4.20;;
26656;SDS011;14279;50.010;8.260;2023-07-16T14:17:40;7.23;;;4.50;;
26656;SDS011;14279;50.010;8.260;2023-07-16T14:20:06;11.37;;;4.50;;
26656;SDS011;14279;50.010;8.260;2023-07-16T14:22:31;9.63;;;4.93;;
26656;SDS011;14279;50.010;8.260;2023-07-16T14:24:57;8.83;;;4.20;;
26656;SDS011;14279;50.010;8.260;2023-07-16T14:27:22;9.03;;;4.03;;
26656;SDS011;14279;50.010;8.260;2023-07-16T14:29:48;7.57;;;4.20;;
26656;SDS011;14279;50.010;8.260;2023-07-16T14:32:13;6.10;;;4.00;;
26656;SDS011;14279;50.010;8.260;2023-07-16T14:34:38;7.80;;;4.20;;
26656;SDS011;14279;50.010;8.260;2023-07-16T14:37:04;18.90;;;4.87;;
26656;SDS011;14279;50.010;8.260;2023-07-16T14:39:29;16.00;;;5.00;;
26656;SDS011;14279;50.010;8.260;2023-07-16T14:41:55;8.07;;;4.37;;
26656;SDS011;14279;50.010;8.260;2023-07-16T14:44:20;9.50;;;5.17;;
26656;SDS011;14279;50.010;8.260;2023-07-16T14:46:45;10.27;;;4.07;;
26656;SDS011;14279;50.010;8.260;2023-07-16T14:49:10;5.00;;;4.00;;
26656;SDS011;14279;50.010;8.260;2023-07-16T14:51:36;6.70;;;4.20;;